createdAt,value
2018-11-23T00:01:41.541Z,71.14
2018-11-23T00:04:10.449Z,71.29
2018-11-23T00:06:38.767Z,71.47
2018-11-23T00:09:07.087Z,71.37
2018-11-23T00:11:35.415Z,71.59
2018-11-23T00:14:03.750Z,71.46
2018-11-23T00:16:31.512Z,71.42
2018-11-23T00:18:59.831Z,71.70
2018-11-23T00:21:28.743Z,71.75
2018-11-23T00:23:57.075Z,71.91
2018-11-23T00:26:24.824Z,71.94
2018-11-23T00:28:53.741Z,72.04
2018-11-23T00:31:22.064Z,71.96
2018-11-23T00:33:50.387Z,71.70
2018-11-23T00:36:18.266Z,71.77
2018-11-23T00:38:47.046Z,71.70
2018-11-23T00:41:15.383Z,71.16
2018-11-23T00:43:43.708Z,71.61
2018-11-23T00:46:12.043Z,71.62
2018-11-23T00:48:39.859Z,71.48
2018-11-23T00:51:08.165Z,71.35
2018-11-23T00:53:36.501Z,71.48
2018-11-23T00:56:04.833Z,71.84
2018-11-23T00:58:33.190Z,71.89
2018-11-23T01:01:02.677Z,71.89
2018-11-23T01:03:29.816Z,72.23
2018-11-23T01:05:58.725Z,72.07
2018-11-23T01:08:26.471Z,72.33
2018-11-23T01:10:55.380Z,72.28
2018-11-23T01:13:23.426Z,72.13
2018-11-23T01:15:52.326Z,71.92
2018-11-23T01:18:20.093Z,72.00
2018-11-23T01:20:48.999Z,72.08
2018-11-23T01:23:17.330Z,72.31
2018-11-23T01:25:45.072Z,72.28
2018-11-23T01:28:13.401Z,72.33
2018-11-23T01:30:42.304Z,72.29
2018-11-23T01:33:10.621Z,72.31
2018-11-23T01:35:38.371Z,72.35
2018-11-23T01:38:07.267Z,72.29
2018-11-23T01:40:35.008Z,72.50
2018-11-23T01:43:03.915Z,72.28
2018-11-23T01:45:32.265Z,72.48
2018-11-23T01:48:00.595Z,72.39
2018-11-23T01:50:28.908Z,72.32
2018-11-23T01:52:56.676Z,72.45
2018-11-23T01:55:25.578Z,72.37
2018-11-23T01:57:53.908Z,72.31
2018-11-23T02:00:22.233Z,72.44
2018-11-23T02:02:50.553Z,72.23
2018-11-23T02:05:18.882Z,72.36
2018-11-23T02:07:46.634Z,72.67
2018-11-23T02:10:15.539Z,72.73
2018-11-23T02:12:43.864Z,72.80
2018-11-23T02:15:11.613Z,72.93
2018-11-23T02:17:39.936Z,72.88
2018-11-23T02:20:08.269Z,72.38
2018-11-23T02:22:36.597Z,72.63
2018-11-23T02:25:05.498Z,72.82
2018-11-23T02:27:33.237Z,72.81
2018-11-23T02:30:02.145Z,72.96
2018-11-23T02:32:30.466Z,73.05
2018-11-23T02:34:58.204Z,72.95
2018-11-23T02:37:26.557Z,73.13
2018-11-23T02:39:55.439Z,73.00
2018-11-23T02:42:23.210Z,73.10
2018-11-23T02:44:51.532Z,73.18
2018-11-23T02:47:20.440Z,73.14
2018-11-23T02:49:48.183Z,72.71
2018-11-23T02:52:16.516Z,72.52
2018-11-23T02:54:44.853Z,72.43
2018-11-23T02:57:13.191Z,72.56
2018-11-23T02:59:42.096Z,72.86
2018-11-23T03:02:10.188Z,72.75
2018-11-23T03:04:38.215Z,73.16
2018-11-23T03:07:07.109Z,73.13
2018-11-23T03:09:34.864Z,72.78
2018-11-23T03:12:03.194Z,72.61
2018-11-23T03:14:32.096Z,72.40
2018-11-23T03:17:00.422Z,72.50
2018-11-23T03:19:28.163Z,72.56
2018-11-23T03:21:57.071Z,72.77
2018-11-23T03:24:25.403Z,72.63
2018-11-23T03:26:53.156Z,72.60
2018-11-23T03:29:21.477Z,72.60
2018-11-23T03:31:49.800Z,72.61
2018-11-23T03:34:18.716Z,72.94
2018-11-23T03:36:47.031Z,72.89
2018-11-23T03:39:14.774Z,73.02
2018-11-23T03:41:43.683Z,73.50
2018-11-23T03:44:11.453Z,73.53
2018-11-23T03:46:40.349Z,73.58
2018-11-23T03:49:08.670Z,74.01
2018-11-23T03:51:36.424Z,74.00
2018-11-23T03:54:05.339Z,73.87
2018-11-23T03:56:33.698Z,73.91
2018-11-23T03:59:01.450Z,73.48
2018-11-23T04:01:30.351Z,73.18
2018-11-23T04:03:58.677Z,73.03
2018-11-23T04:06:27.013Z,73.14
2018-11-23T04:08:55.342Z,73.01
2018-11-23T04:11:23.088Z,73.20
2018-11-23T04:13:52.238Z,73.30
2018-11-23T04:16:19.989Z,73.30
2018-11-23T04:18:48.883Z,73.45
2018-11-23T04:21:16.622Z,73.38
2018-11-23T04:23:44.949Z,73.33
2018-11-23T04:26:13.855Z,73.38
2018-11-23T04:28:42.184Z,73.69
2018-11-23T04:31:09.930Z,74.09
2018-11-23T04:33:38.825Z,74.11
2018-11-23T04:36:06.584Z,74.07
2018-11-23T04:38:34.899Z,74.18
2018-11-23T04:41:03.803Z,74.34
2018-11-23T04:43:32.140Z,74.16
2018-11-23T04:45:59.961Z,74.28
2018-11-23T04:48:28.798Z,74.90
2018-11-23T04:50:57.126Z,74.94
2018-11-23T04:53:25.440Z,74.95
2018-11-23T04:55:53.851Z,74.61
2018-11-23T04:58:22.212Z,74.74
2018-11-23T05:00:50.533Z,74.75
2018-11-23T05:03:18.854Z,74.55
2018-11-23T05:05:47.166Z,75.04
2018-11-23T05:08:14.917Z,74.98
2018-11-23T05:10:43.818Z,74.75
2018-11-23T05:13:12.147Z,75.30
2018-11-23T05:15:40.472Z,75.26
2018-11-23T05:18:08.791Z,75.02
2018-11-23T05:20:37.110Z,75.70
2018-11-23T05:23:05.430Z,75.68
2018-11-23T05:25:33.755Z,75.45
2018-11-23T05:28:01.497Z,75.52
2018-11-23T05:30:30.399Z,75.56
2018-11-23T05:32:58.736Z,75.46
2018-11-23T05:35:27.062Z,75.45
2018-11-23T05:37:54.803Z,75.45
2018-11-23T05:40:23.124Z,75.07
2018-11-23T05:42:52.037Z,75.16
2018-11-23T05:45:20.359Z,75.07
2018-11-23T05:47:48.672Z,74.96
2018-11-23T05:50:16.414Z,74.83
2018-11-23T05:52:45.327Z,75.35
2018-11-23T05:55:13.636Z,75.47
2018-11-23T05:57:41.378Z,75.57
2018-11-23T06:00:09.836Z,75.76
2018-11-23T06:02:38.643Z,75.47
2018-11-23T06:05:06.967Z,75.99
2018-11-23T06:07:34.724Z,75.87
2018-11-23T06:10:03.060Z,75.59
2018-11-23T06:12:31.475Z,75.86
2018-11-23T06:14:59.798Z,76.22
2018-11-23T06:17:28.706Z,75.95
2018-11-23T06:19:57.019Z,76.22
2018-11-23T06:22:24.768Z,76.05
2018-11-23T06:24:54.407Z,76.17
2018-11-23T06:27:21.471Z,76.56
2018-11-23T06:29:50.410Z,76.44
2018-11-23T06:32:18.711Z,76.35
2018-11-23T06:34:46.677Z,76.43
2018-11-23T06:37:15.358Z,76.61
2018-11-23T06:39:43.105Z,76.62
2018-11-23T06:42:11.467Z,76.92
2018-11-23T06:44:39.749Z,77.05
2018-11-23T06:47:08.657Z,76.93
2018-11-23T06:49:36.987Z,76.14
2018-11-23T06:52:04.732Z,76.58
2018-11-23T06:54:33.570Z,76.44
2018-11-23T06:57:01.889Z,76.67
2018-11-23T06:59:30.213Z,76.88
2018-11-23T07:01:59.149Z,76.63
2018-11-23T07:04:26.890Z,76.61
2018-11-23T07:06:55.798Z,76.58
2018-11-23T07:09:23.987Z,76.57
2018-11-23T07:11:52.454Z,76.69
2018-11-23T07:14:20.772Z,77.33
2018-11-23T07:16:48.522Z,77.22
2018-11-23T07:19:17.432Z,77.50
2018-11-23T07:21:45.765Z,77.47
2018-11-23T07:24:14.101Z,77.30
2018-11-23T07:26:41.884Z,77.05
2018-11-23T07:29:10.768Z,77.58
2018-11-23T07:31:38.513Z,78.10
2018-11-23T07:34:07.424Z,78.26
2018-11-23T07:36:35.738Z,77.66
2018-11-23T07:39:03.481Z,77.67
2018-11-23T07:41:40.899Z,77.85
2018-11-23T07:44:08.691Z,77.57
2018-11-23T07:46:37.592Z,77.50
2018-11-23T07:49:05.915Z,77.48
2018-11-23T07:51:39.047Z,78.02
2018-11-23T07:54:02.564Z,77.46
2018-11-23T07:56:30.887Z,77.82
2018-11-23T07:58:59.224Z,77.56
2018-11-23T08:01:26.967Z,77.56
2018-11-23T08:03:55.897Z,77.96
2018-11-23T08:06:23.868Z,78.06
2018-11-23T08:08:52.550Z,77.60
2018-11-23T08:11:20.880Z,77.55
2018-11-23T08:13:49.246Z,77.86
2018-11-23T08:16:17.049Z,78.19
2018-11-23T08:18:45.963Z,77.83
2018-11-23T08:21:14.590Z,77.50
2018-11-23T08:23:43.097Z,77.96
2018-11-23T08:26:11.423Z,78.18
2018-11-23T08:28:39.749Z,78.20
2018-11-23T08:31:07.622Z,78.24
2018-11-23T08:33:35.870Z,77.99
2018-11-23T08:36:04.866Z,77.40
2018-11-23T08:38:33.680Z,77.84
2018-11-23T08:41:02.272Z,77.72
2018-11-23T08:43:30.603Z,77.82
2018-11-23T08:45:59.804Z,77.70
2018-11-23T08:48:28.373Z,77.85
2018-11-23T08:50:56.346Z,78.25
2018-11-23T08:53:27.944Z,78.04
2018-11-23T08:55:53.973Z,77.84
2018-11-23T08:58:21.748Z,77.86
2018-11-23T09:00:50.077Z,77.76
2018-11-23T09:03:20.366Z,77.91
2018-11-23T09:05:49.686Z,77.95
2018-11-23T09:08:19.148Z,78.12
2018-11-23T09:10:48.023Z,78.02
2018-11-23T09:13:17.155Z,77.58
2018-11-23T09:15:46.373Z,77.32
2018-11-23T09:18:14.522Z,77.41
2018-11-23T09:20:43.784Z,77.64
2018-11-23T09:23:12.734Z,77.76
2018-11-23T09:25:41.064Z,77.80
2018-11-23T09:28:11.179Z,78.24
2018-11-23T09:30:39.573Z,78.34
2018-11-23T09:33:08.138Z,78.25
2018-11-23T09:35:37.274Z,78.15
2018-11-23T09:38:05.780Z,77.97
2018-11-23T09:40:34.334Z,77.89
2018-11-23T09:43:03.799Z,77.86
2018-11-23T09:45:32.324Z,77.61
2018-11-23T09:48:00.082Z,77.05
2018-11-23T09:50:29.698Z,77.02
2018-11-23T09:52:57.510Z,76.89
2018-11-23T09:55:26.345Z,77.07
2018-11-23T09:57:54.767Z,77.06
2018-11-23T10:00:23.067Z,76.73
2018-11-23T10:02:50.838Z,76.85
2018-11-23T10:05:19.768Z,76.67
2018-11-23T10:07:47.566Z,76.71
2018-11-23T10:10:16.473Z,76.56
2018-11-23T10:12:44.350Z,76.45
2018-11-23T10:15:14.146Z,76.35
2018-11-23T10:17:42.080Z,76.26
2018-11-23T10:20:11.954Z,76.21
2018-11-23T10:22:40.524Z,76.33
2018-11-23T10:25:08.799Z,76.38
2018-11-23T10:27:37.151Z,76.60
2018-11-23T10:30:04.888Z,76.19
2018-11-23T10:32:33.814Z,76.21
2018-11-23T10:35:02.163Z,75.81
2018-11-23T10:37:30.491Z,75.96
2018-11-23T10:39:58.826Z,75.52
2018-11-23T10:42:27.190Z,75.35
2018-11-23T10:44:55.515Z,75.31
2018-11-23T10:47:23.846Z,75.23
2018-11-23T10:49:52.184Z,75.41
2018-11-23T10:52:19.936Z,75.51
2018-11-23T10:54:48.263Z,75.40
2018-11-23T10:57:17.172Z,75.49
2018-11-23T10:59:45.520Z,75.38
2018-11-23T11:02:13.254Z,75.27
2018-11-23T11:04:41.596Z,75.18
2018-11-23T11:07:10.538Z,75.14
2018-11-23T11:09:39.547Z,75.02
2018-11-23T11:12:07.536Z,74.85
2018-11-23T11:14:35.657Z,74.76
2018-11-23T11:17:03.648Z,74.84
2018-11-23T11:19:32.539Z,74.74
2018-11-23T11:22:00.903Z,74.79
2018-11-23T11:24:28.649Z,74.91
2018-11-23T11:26:57.219Z,74.71
2018-11-23T11:29:25.884Z,74.78
2018-11-23T11:31:54.282Z,74.77
2018-11-23T11:34:22.031Z,74.79
2018-11-23T11:36:50.387Z,74.73
2018-11-23T11:39:19.281Z,74.44
2018-11-23T11:41:47.595Z,74.60
2018-11-23T11:44:15.343Z,74.65
2018-11-23T11:46:44.274Z,74.82
2018-11-23T11:49:12.603Z,74.79
2018-11-23T11:51:41.093Z,74.74
2018-11-23T11:54:09.347Z,74.60
2018-11-23T11:56:37.721Z,74.60
2018-11-23T11:59:06.072Z,74.69
2018-11-23T12:01:35.168Z,74.67
2018-11-23T12:04:03.506Z,74.77
2018-11-23T12:06:31.238Z,74.69
2018-11-23T12:09:00.457Z,74.59
2018-11-23T12:11:28.253Z,74.55
2018-11-23T12:13:57.173Z,74.60
2018-11-23T12:16:25.004Z,74.55
2018-11-23T12:18:54.365Z,74.67
2018-11-23T12:21:22.605Z,74.69
2018-11-23T12:23:50.701Z,74.60
2018-11-23T12:26:18.453Z,74.87
2018-11-23T12:28:46.795Z,74.74
2018-11-23T12:31:15.680Z,74.75
2018-11-23T12:33:44.073Z,74.57
2018-11-23T12:36:12.405Z,74.59
2018-11-23T12:38:42.971Z,74.41
2018-11-23T12:41:09.060Z,74.52
2018-11-23T12:43:37.410Z,74.46
2018-11-23T12:46:05.947Z,74.37
2018-11-23T12:48:34.058Z,74.42
2018-11-23T12:51:02.391Z,74.53
2018-11-23T12:53:30.147Z,74.64
2018-11-23T12:55:59.072Z,74.53
2018-11-23T12:58:26.817Z,74.47
2018-11-23T13:00:55.722Z,74.43
2018-11-23T13:03:24.045Z,74.40
2018-11-23T13:05:52.366Z,74.39
2018-11-23T13:08:20.141Z,74.59
2018-11-23T13:10:48.428Z,74.49
2018-11-23T13:13:16.753Z,74.46
2018-11-23T13:15:46.625Z,74.38
2018-11-23T13:18:14.252Z,74.34
2018-11-23T13:20:42.582Z,74.11
2018-11-23T13:23:10.329Z,74.11
2018-11-23T13:25:39.244Z,74.16
2018-11-23T13:28:07.613Z,74.29
2018-11-23T13:30:35.926Z,74.27
2018-11-23T13:33:04.267Z,74.45
2018-11-23T13:35:32.020Z,74.41
2018-11-23T13:38:00.720Z,74.60
2018-11-23T13:40:29.641Z,74.55
2018-11-23T13:42:57.967Z,74.56
2018-11-23T13:45:26.308Z,74.69
2018-11-23T13:47:54.623Z,74.67
2018-11-23T13:50:22.970Z,74.60
2018-11-23T13:52:51.140Z,74.89
2018-11-23T13:55:19.473Z,74.98
2018-11-23T13:57:48.550Z,75.27
2018-11-23T14:00:17.454Z,75.40
2018-11-23T14:02:45.222Z,75.51
2018-11-23T14:05:14.130Z,75.59
2018-11-23T14:07:42.455Z,75.84
2018-11-23T14:10:10.784Z,76.01
2018-11-23T14:12:39.120Z,76.28
2018-11-23T14:15:07.455Z,76.59
2018-11-23T14:17:35.784Z,77.01
2018-11-23T14:20:04.114Z,77.25
2018-11-23T14:22:32.437Z,77.04
2018-11-23T14:25:00.764Z,77.25
2018-11-23T14:27:29.090Z,77.49
2018-11-23T14:29:57.435Z,77.60
2018-11-23T14:32:25.775Z,77.56
2018-11-23T14:34:54.098Z,77.49
2018-11-23T14:37:22.535Z,77.73
2018-11-23T14:39:50.868Z,77.62
2018-11-23T14:42:18.617Z,77.71
2018-11-23T14:44:46.947Z,77.80
2018-11-23T14:47:15.276Z,77.96
2018-11-23T14:49:44.584Z,77.68
2018-11-23T14:52:12.371Z,77.66
2018-11-23T14:54:42.870Z,77.68
2018-11-23T14:57:09.492Z,77.73
2018-11-23T14:59:37.831Z,77.75
2018-11-23T15:02:07.101Z,77.76
2018-11-23T15:04:35.966Z,77.43
2018-11-23T15:07:04.516Z,77.34
2018-11-23T15:09:32.617Z,77.51
2018-11-23T15:12:00.954Z,77.21
2018-11-23T15:14:28.706Z,77.36
2018-11-23T15:16:57.620Z,77.10
2018-11-23T15:19:25.361Z,77.02
2018-11-23T15:21:54.270Z,76.87
2018-11-23T15:24:22.601Z,77.16
2018-11-23T15:26:50.928Z,77.25
2018-11-23T15:29:19.280Z,77.19
2018-11-23T15:31:47.611Z,76.97
2018-11-23T15:34:15.951Z,77.14
2018-11-23T15:36:43.689Z,76.87
2018-11-23T15:39:12.632Z,76.95
2018-11-23T15:41:40.384Z,77.15
2018-11-23T15:44:09.303Z,76.90
2018-11-23T15:46:37.939Z,77.05
2018-11-23T15:49:05.733Z,77.21
2018-11-23T15:51:35.623Z,77.20
2018-11-23T15:54:03.365Z,77.09
2018-11-23T15:56:31.723Z,76.84
2018-11-23T15:59:00.633Z,77.01
2018-11-23T16:01:28.957Z,77.03
2018-11-23T16:03:57.329Z,77.01
2018-11-23T16:06:26.301Z,76.85
2018-11-23T16:08:54.046Z,77.06
2018-11-23T16:11:22.947Z,77.13
2018-11-23T16:13:50.690Z,77.07
2018-11-23T16:16:19.622Z,77.32
2018-11-23T16:18:47.773Z,77.44
2018-11-23T16:21:17.102Z,77.58
2018-11-23T16:23:45.439Z,77.46
2018-11-23T16:26:14.806Z,77.40
2018-11-23T16:28:43.102Z,77.57
2018-11-23T16:31:11.428Z,77.54
2018-11-23T16:33:40.078Z,77.67
2018-11-23T16:36:07.961Z,77.53
2018-11-23T16:38:36.836Z,77.74
2018-11-23T16:41:05.125Z,77.78
2018-11-23T16:43:33.466Z,77.92
2018-11-23T16:46:01.792Z,78.05
2018-11-23T16:48:30.322Z,78.07
2018-11-23T16:50:58.732Z,78.13
2018-11-23T16:53:27.459Z,77.93
2018-11-23T16:55:56.394Z,78.09
2018-11-23T16:58:25.081Z,77.99
2018-11-23T17:00:53.609Z,78.08
2018-11-23T17:03:22.323Z,78.13
2018-11-23T17:05:51.353Z,78.07
2018-11-23T17:08:20.449Z,78.11
2018-11-23T17:10:48.296Z,78.11
2018-11-23T17:13:17.821Z,78.05
2018-11-23T17:15:47.610Z,78.04
2018-11-23T17:18:15.691Z,78.11
2018-11-23T17:20:44.159Z,77.84
2018-11-23T17:23:12.691Z,77.95
2018-11-23T17:25:40.796Z,78.08
2018-11-23T17:28:11.682Z,78.15
2018-11-23T17:30:41.513Z,78.16
2018-11-23T17:33:10.371Z,77.96
2018-11-23T17:35:38.676Z,77.90
2018-11-23T17:38:06.427Z,77.77
2018-11-23T17:40:35.822Z,77.77
2018-11-23T17:43:04.173Z,77.96
2018-11-23T17:45:32.763Z,77.98
2018-11-23T17:48:01.121Z,78.15
2018-11-23T17:50:29.931Z,78.19
2018-11-23T17:52:58.273Z,77.96
2018-11-23T17:55:26.895Z,77.89
2018-11-23T17:57:54.624Z,77.93
2018-11-23T18:00:26.519Z,78.07
2018-11-23T18:02:53.492Z,77.83
2018-11-23T18:05:21.732Z,77.88
2018-11-23T18:07:50.666Z,78.14
2018-11-23T18:10:19.227Z,78.15
2018-11-23T18:12:47.697Z,78.10
2018-11-23T18:15:16.370Z,78.17
2018-11-23T18:17:44.123Z,77.94
2018-11-23T18:20:13.031Z,78.04
2018-11-23T18:22:41.461Z,77.95
2018-11-23T18:25:09.181Z,78.20
2018-11-23T18:27:38.099Z,78.23
2018-11-23T18:30:06.631Z,78.26
2018-11-23T18:32:35.365Z,78.55
2018-11-23T18:35:03.756Z,78.63
2018-11-23T18:37:32.799Z,78.54
2018-11-23T18:40:01.126Z,78.47
2018-11-23T18:42:29.454Z,78.17
2018-11-23T18:45:04.446Z,78.07
2018-11-23T18:47:32.805Z,78.00
2018-11-23T18:50:01.215Z,78.35
2018-11-23T18:52:28.961Z,78.46
2018-11-23T18:54:57.285Z,78.43
2018-11-23T18:57:25.654Z,78.31
2018-11-23T18:59:54.548Z,78.22
2018-11-23T19:02:22.923Z,78.30
2018-11-23T19:04:50.988Z,78.25
2018-11-23T19:07:20.156Z,78.32
2018-11-23T19:09:48.796Z,78.37
2018-11-23T19:12:16.540Z,78.58
2018-11-23T19:14:45.603Z,78.76
2018-11-23T19:17:15.207Z,78.55
2018-11-23T19:19:43.560Z,78.83
2018-11-23T19:22:11.919Z,78.91
2018-11-23T19:24:39.854Z,78.89
2018-11-23T19:27:08.769Z,78.88
2018-11-23T19:29:36.660Z,78.67
2018-11-23T19:32:05.513Z,78.56
2018-11-23T19:34:33.838Z,78.50
2018-11-23T19:37:01.754Z,78.52
2018-11-23T19:39:30.647Z,78.43
2018-11-23T19:41:58.438Z,78.33
2018-11-23T19:44:28.254Z,78.42
2018-11-23T19:46:57.110Z,78.46
2018-11-23T19:49:26.343Z,78.36
2018-11-23T19:51:54.096Z,78.21
2018-11-23T19:54:23.483Z,78.13
2018-11-23T19:56:51.865Z,78.05
2018-11-23T19:59:20.412Z,77.92
2018-11-23T20:01:48.716Z,77.84
2018-11-23T20:04:17.454Z,77.99
2018-11-23T20:06:47.148Z,77.98
2018-11-23T20:09:16.252Z,78.01
2018-11-23T20:11:44.742Z,78.06
2018-11-23T20:14:14.546Z,78.21
2018-11-23T20:16:42.873Z,78.34
2018-11-23T20:19:12.009Z,78.35
2018-11-23T20:21:40.244Z,78.15
2018-11-23T20:24:09.130Z,78.01
2018-11-23T20:26:37.920Z,78.08
2018-11-23T20:29:06.665Z,78.37
2018-11-23T20:31:36.415Z,78.32
2018-11-23T20:34:06.337Z,78.19
2018-11-23T20:36:36.182Z,78.45
2018-11-23T20:39:05.022Z,78.45
2018-11-23T20:41:33.949Z,78.27
2018-11-23T20:44:02.821Z,78.30
2018-11-23T20:46:31.444Z,78.30
2018-11-23T20:49:00.786Z,78.44
2018-11-23T20:51:29.413Z,78.57
2018-11-23T20:53:57.971Z,78.68
2018-11-23T20:56:27.280Z,78.74
2018-11-23T20:58:56.615Z,78.41
2018-11-23T21:01:25.197Z,78.62
2018-11-23T21:03:53.720Z,78.53
2018-11-23T21:06:21.988Z,78.36
2018-11-23T21:08:51.928Z,78.18
2018-11-23T21:11:20.578Z,78.04
2018-11-23T21:13:49.672Z,78.10
2018-11-23T21:16:17.814Z,78.24
2018-11-23T21:18:46.953Z,78.14
2018-11-23T21:21:15.317Z,77.97
2018-11-23T21:23:43.902Z,78.04
2018-11-23T21:26:12.287Z,78.36
2018-11-23T21:28:40.798Z,78.49
2018-11-23T21:31:10.075Z,78.44
2018-11-23T21:33:38.444Z,78.44
2018-11-23T21:36:08.200Z,78.18
2018-11-23T21:38:36.206Z,78.36
2018-11-23T21:41:05.649Z,78.46
2018-11-23T21:43:33.257Z,78.21
2018-11-23T21:46:02.864Z,78.55
2018-11-23T21:48:31.331Z,78.56
2018-11-23T21:50:59.664Z,78.57
2018-11-23T21:53:28.387Z,78.52
2018-11-23T21:55:56.964Z,78.78
2018-11-23T21:58:26.290Z,78.87
2018-11-23T22:00:54.633Z,78.84
2018-11-23T22:03:24.373Z,78.61
2018-11-23T22:05:51.594Z,78.72
2018-11-23T22:08:19.776Z,78.67
2018-11-23T22:10:50.226Z,78.46
2018-11-23T22:13:18.401Z,78.70
2018-11-23T22:15:46.786Z,78.66
2018-11-23T22:18:15.290Z,78.66
2018-11-23T22:20:43.646Z,78.57
2018-11-23T22:23:12.266Z,78.56
2018-11-23T22:25:40.651Z,78.39
2018-11-23T22:28:08.463Z,78.33
2018-11-23T22:30:37.541Z,78.43
2018-11-23T22:33:05.271Z,78.27
2018-11-23T22:35:34.249Z,78.35
2018-11-23T22:38:02.996Z,78.35
2018-11-23T22:40:30.904Z,78.11
2018-11-23T22:42:59.948Z,78.27
2018-11-23T22:45:28.456Z,78.26
2018-11-23T22:47:56.298Z,78.13
2018-11-23T22:50:26.282Z,78.09
2018-11-23T22:52:54.023Z,77.97
2018-11-23T22:55:22.831Z,77.68
2018-11-23T22:57:51.796Z,77.91
2018-11-23T23:00:20.745Z,77.73
2018-11-23T23:02:49.914Z,77.86
2018-11-23T23:05:19.316Z,77.89
2018-11-23T23:07:48.245Z,77.97
2018-11-23T23:10:17.268Z,77.91
2018-11-23T23:12:45.663Z,78.24
2018-11-23T23:15:14.569Z,78.32
2018-11-23T23:17:43.990Z,78.12
2018-11-23T23:20:12.305Z,78.06
2018-11-23T23:22:41.500Z,78.21
2018-11-23T23:25:10.191Z,78.08
2018-11-23T23:27:38.545Z,78.05
2018-11-23T23:30:06.314Z,77.78
2018-11-23T23:32:35.566Z,77.86
2018-11-23T23:35:03.956Z,77.75
2018-11-23T23:37:33.147Z,77.76
2018-11-23T23:40:02.304Z,77.79
2018-11-23T23:42:31.550Z,77.75
2018-11-23T23:45:00.521Z,77.55
2018-11-23T23:47:31.516Z,77.52
2018-11-23T23:50:00.139Z,77.40
2018-11-23T23:52:28.568Z,77.24
2018-11-23T23:54:57.536Z,77.28
2018-11-23T23:57:25.898Z,77.28
2018-11-23T23:59:54.601Z,77.30
